»·PEaware :: N7DJ KOAK-KONT

N7DJ :: KOAK-KONT

FLIGHT INFORMATION

Flight Status: Arrived
Operator: Privately registered:
United States
More flights under this callsign
Pilot: Don J. (45483)
Aircraft: CANADAIR CL-600 CHALLENGER
(CL60)
More flights by this aircraft type
Origin: KOAK Metro Oakland Intl
United States
Destination: KONT Ontario Intl
United States
More flights between these airports :: More routes between these airports
Route: CNDEL5 KAYEX LOSHN EHF ZIGGY7
File this flight plan on PilotEdge
Remarks: RMK / SIMBRIEF
Altitude:
(Current/Filed)
37,000ft
Speed:
(Current/Filed)
458kts
Departed: 11-Nov-23 10:57 AM
Arrived: 11-Nov-23 12:03 PM
Distance/Time
Traveled:
314nm/1:05
Distance/Time
To Go:
Arrived

Flight Plot

Page will automatically refresh every two minutes.

Flight plan parsing failed; only flown route is shown


Map Options




Map Legend


Flown Route
Filed Route
Departure Airport
Arrival Airport
Navaid (VOR, NDB)
Fix

Horizontal Profiles

Position Reports

Time Latitude Longitude Heading Altitude Ground
Speed
11-Nov-23 10:17 37.727462 -122.207979 307 12ft 0kts
11-Nov-23 10:18 37.727462 -122.207979 307 12ft 0kts
11-Nov-23 10:19 37.727462 -122.207979 307 12ft 0kts
11-Nov-23 10:20 37.727462 -122.207979 307 12ft 0kts
11-Nov-23 10:21 37.727462 -122.207979 307 12ft 0kts
11-Nov-23 10:22 37.727462 -122.207979 307 12ft 0kts
11-Nov-23 10:23 37.727462 -122.207979 307 12ft 0kts
11-Nov-23 10:24 37.727462 -122.207979 307 12ft 0kts
11-Nov-23 10:25 37.727462 -122.207979 307 12ft 0kts
11-Nov-23 10:26 37.727462 -122.207979 307 12ft 0kts
11-Nov-23 10:27 37.727462 -122.207979 307 12ft 0kts
11-Nov-23 10:28 37.727462 -122.207979 307 12ft 0kts
11-Nov-23 10:29 37.727462 -122.207979 307 12ft 0kts
11-Nov-23 10:30 37.727462 -122.207979 307 12ft 0kts
11-Nov-23 10:31 37.727462 -122.207979 307 12ft 0kts
11-Nov-23 10:32 37.727462 -122.207979 307 12ft 0kts
11-Nov-23 10:33 37.727462 -122.207979 307 12ft 0kts
11-Nov-23 10:34 37.727462 -122.207979 307 12ft 0kts
11-Nov-23 10:35 37.727462 -122.207979 307 12ft 0kts
11-Nov-23 10:36 37.727462 -122.207979 307 12ft 0kts
11-Nov-23 10:37 37.727462 -122.207979 307 12ft 0kts
11-Nov-23 10:38 37.727462 -122.207979 307 12ft 0kts
11-Nov-23 10:39 37.727462 -122.207979 307 12ft 0kts
11-Nov-23 10:40 37.727462 -122.207979 307 12ft 0kts
11-Nov-23 10:41 37.727462 -122.207979 307 12ft 0kts
11-Nov-23 10:43 37.727462 -122.207979 307 12ft 0kts
11-Nov-23 10:44 37.727462 -122.207979 307 12ft 0kts
11-Nov-23 10:45 37.727462 -122.207979 307 12ft 0kts
11-Nov-23 10:46 37.727462 -122.207979 307 12ft 0kts
11-Nov-23 10:47 37.727462 -122.207979 307 12ft 0kts
11-Nov-23 10:48 37.727462 -122.207979 307 12ft 0kts
11-Nov-23 10:49 37.727462 -122.207979 307 12ft 0kts
11-Nov-23 10:50 37.727462 -122.207979 307 12ft 0kts
11-Nov-23 10:51 37.727462 -122.207979 307 12ft 0kts
11-Nov-23 10:52 37.726850 -122.207529 111 12ft 11kts
11-Nov-23 10:53 37.725756 -122.204552 158 13ft 5kts
11-Nov-23 10:54 37.725685 -122.204539 186 13ft 0kts
11-Nov-23 10:55 37.725685 -122.204539 186 13ft 0kts
11-Nov-23 10:56 37.725036 -122.205345 293 13ft 8kts
11-Nov-23 10:57 37.736089 -122.239829 295 1295ft 190kts
11-Nov-23 10:58 37.761453 -122.304523 301 2001ft 205kts
11-Nov-23 10:59 37.791564 -122.363679 260 3556ft 213kts
11-Nov-23 11:00 37.732666 -122.397910 193 5607ft 265kts
11-Nov-23 11:01 37.659556 -122.419967 194 7648ft 275kts
11-Nov-23 11:02 37.584162 -122.444205 194 9691ft 284kts
11-Nov-23 11:03 37.501047 -122.463799 169 11746ft 337kts
11-Nov-23 11:04 37.431935 -122.384663 127 13811ft 346kts
11-Nov-23 11:05 37.370290 -122.288841 127 15905ft 361kts
11-Nov-23 11:06 37.305517 -122.188516 127 18034ft 376kts
11-Nov-23 11:07 37.237979 -122.084276 127 19693ft 391kts
11-Nov-23 11:08 37.170100 -121.979884 127 20857ft 387kts
11-Nov-23 11:09 37.100285 -121.872827 128 22924ft 403kts
11-Nov-23 11:10 37.028366 -121.762923 128 24946ft 414kts
11-Nov-23 11:11 36.953978 -121.649621 128 26708ft 427kts
11-Nov-23 11:12 36.876836 -121.532525 128 27829ft 440kts
11-Nov-23 11:12 36.812771 -121.435610 128 29388ft 439kts
11-Nov-23 11:13 36.733198 -121.315598 129 30853ft 461kts
11-Nov-23 11:15 36.636269 -121.169996 129 32209ft 472kts
11-Nov-23 11:16 36.551625 -121.043353 128 33361ft 481kts
11-Nov-23 11:16 36.479760 -120.936146 128 34303ft 488kts
11-Nov-23 11:17 36.393132 -120.806358 128 35348ft 486kts
11-Nov-23 11:18 36.306936 -120.677707 128 36256ft 484kts
11-Nov-23 11:19 36.220893 -120.549778 127 36897ft 487kts
11-Nov-23 11:21 36.118635 -120.398347 127 36877ft 495kts
11-Nov-23 11:21 36.045129 -120.289920 128 36885ft 495kts
11-Nov-23 11:22 35.956364 -120.159440 128 36951ft 495kts
11-Nov-23 11:23 35.867772 -120.029612 126 36950ft 494kts
11-Nov-23 11:24 35.799907 -119.884336 112 36934ft 489kts
11-Nov-23 11:25 35.740182 -119.733773 112 36927ft 488kts
11-Nov-23 11:26 35.680596 -119.584229 112 36933ft 487kts
11-Nov-23 11:27 35.620908 -119.435046 112 36961ft 486kts
11-Nov-23 11:28 35.561104 -119.286216 112 36935ft 486kts
11-Nov-23 11:29 35.499514 -119.138447 119 36935ft 489kts
11-Nov-23 11:30 35.403092 -119.019464 139 36931ft 497kts
11-Nov-23 11:31 35.294046 -118.915665 139 36641ft 502kts
11-Nov-23 11:32 35.184064 -118.811412 139 35273ft 497kts
11-Nov-23 11:33 35.075574 -118.706005 132 33123ft 494kts
11-Nov-23 11:34 34.986872 -118.578784 126 30941ft 493kts
11-Nov-23 11:35 34.900497 -118.452715 126 28814ft 476kts
11-Nov-23 11:36 34.816654 -118.330813 127 26770ft 464kts
11-Nov-23 11:37 34.734791 -118.212240 127 24931ft 450kts
11-Nov-23 11:38 34.654104 -118.095750 127 24680ft 450kts
11-Nov-23 11:39 34.590092 -117.973127 115 22647ft 414kts
11-Nov-23 11:40 34.535929 -117.854286 116 20314ft 389kts
11-Nov-23 11:41 34.485860 -117.744940 116 18320ft 362kts
11-Nov-23 11:42 34.438421 -117.641720 116 16282ft 328kts
11-Nov-23 11:43 34.395479 -117.548533 116 14597ft 313kts
11-Nov-23 11:44 34.355108 -117.461208 116 13587ft 297kts
11-Nov-23 11:45 34.313302 -117.371254 120 11117ft 314kts
11-Nov-23 11:46 34.253741 -117.294498 133 9308ft 297kts
11-Nov-23 11:47 34.202751 -117.232154 133 9210ft 231kts
11-Nov-23 11:48 34.160980 -117.181824 133 9242ft 208kts
11-Nov-23 11:49 34.119864 -117.131779 133 8782ft 212kts
11-Nov-23 11:50 34.078899 -117.082344 133 7247ft 205kts
11-Nov-23 11:51 34.039628 -117.034775 138 6170ft 197kts
11-Nov-23 11:52 34.010221 -117.066288 289 6196ft 200kts
11-Nov-23 11:53 34.029306 -117.129442 290 6170ft 200kts
11-Nov-23 11:54 34.048887 -117.192703 291 4829ft 199kts
11-Nov-23 11:55 34.054468 -117.257225 270 4099ft 193kts
11-Nov-23 11:56 34.054672 -117.322176 270 4095ft 193kts
11-Nov-23 11:57 34.054787 -117.387044 270 4043ft 190kts
11-Nov-23 11:58 34.054860 -117.445848 270 3159ft 170kts
11-Nov-23 11:59 34.054908 -117.502366 270 2266ft 167kts
11-Nov-23 12:00 34.054927 -117.556422 270 1419ft 145kts
11-Nov-23 12:01 34.054955 -117.599644 269 930ft 59kts
11-Nov-23 12:02 34.054771 -117.611292 245 936ft 16kts
11-Nov-23 12:03 34.052703 -117.612680 182 927ft 15kts
11-Nov-23 12:04 34.051579 -117.611930 88 922ft 0kts
11-Nov-23 12:05 34.051579 -117.611930 88 922ft 0kts

Navigation Log

Ident Type
Flight plan parsing failed, navigation log unavailable